createdAt,value
2023-03-30T00:00:51.505Z,100203.63
2023-03-30T00:03:22.875Z,100223.44
2023-03-30T00:05:51.684Z,100224.28
2023-03-30T00:08:21.012Z,100215.03
2023-03-30T00:10:49.341Z,100216.84
2023-03-30T00:13:18.057Z,100214.28
2023-03-30T00:15:46.076Z,100217.25
2023-03-30T00:18:14.483Z,100223.53
2023-03-30T00:20:43.324Z,100215.81
2023-03-30T00:23:11.281Z,100225.16
2023-03-30T00:25:40.659Z,100219.69
2023-03-30T00:28:08.516Z,100218.34
2023-03-30T00:30:37.193Z,100223.41
2023-03-30T00:33:05.362Z,100217.00
2023-03-30T00:35:33.288Z,100221.47
2023-03-30T00:38:03.184Z,100228.44
2023-03-30T00:40:31.460Z,100179.41
2023-03-30T00:43:01.679Z,100225.78
2023-03-30T00:45:29.835Z,100221.66
2023-03-30T00:48:00.389Z,100230.78
2023-03-30T00:50:35.150Z,100231.59
2023-03-30T00:53:07.128Z,100217.31
2023-03-30T00:55:35.109Z,100221.78
2023-03-30T00:58:04.414Z,100233.97
2023-03-30T01:00:33.203Z,100215.50
2023-03-30T01:03:03.054Z,100231.00
2023-03-30T01:05:31.021Z,100229.19
2023-03-30T01:07:59.289Z,100221.28
2023-03-30T01:10:27.141Z,100231.56
2023-03-30T01:12:55.080Z,100229.53
2023-03-30T01:15:25.409Z,100238.34
2023-03-30T01:18:08.884Z,100226.69
2023-03-30T01:21:14.131Z,100228.47
2023-03-30T01:24:20.223Z,100231.56
2023-03-30T01:26:54.074Z,100233.59
2023-03-30T01:29:40.019Z,100228.44
2023-03-30T01:32:20.654Z,100234.66
2023-03-30T01:35:10.302Z,100213.00
2023-03-30T01:38:13.212Z,100227.50
2023-03-30T01:40:43.128Z,100226.53
2023-03-30T01:43:14.875Z,100233.59
2023-03-30T01:45:44.634Z,100220.16
2023-03-30T01:48:14.613Z,100220.72
2023-03-30T01:50:43.215Z,100220.16
2023-03-30T01:53:15.008Z,100229.97
2023-03-30T01:55:45.536Z,100223.81
2023-03-30T01:58:15.515Z,100228.28
2023-03-30T02:00:43.682Z,100233.63
2023-03-30T02:03:13.553Z,100217.50
2023-03-30T02:05:41.815Z,100217.50
2023-03-30T02:08:11.525Z,100209.03
2023-03-30T02:10:39.381Z,100222.53
2023-03-30T02:13:08.661Z,100220.16
2023-03-30T02:15:38.177Z,100203.09
2023-03-30T02:18:06.412Z,100202.06
2023-03-30T02:20:34.646Z,100206.06
2023-03-30T02:23:03.610Z,100209.59
2023-03-30T02:25:32.148Z,100208.59
2023-03-30T02:28:00.082Z,100207.66
2023-03-30T02:30:32.432Z,100202.44
2023-03-30T02:33:00.592Z,100204.84
2023-03-30T02:35:46.386Z,100188.25
2023-03-30T02:38:43.902Z,100206.88
2023-03-30T02:41:17.575Z,100207.81
2023-03-30T02:43:46.907Z,100201.25
2023-03-30T02:46:26.811Z,100200.50
2023-03-30T02:48:58.485Z,100200.28
2023-03-30T02:51:38.085Z,100208.78
2023-03-30T02:54:12.318Z,100197.22
2023-03-30T02:56:42.778Z,100190.09
2023-03-30T02:59:12.936Z,100197.47
2023-03-30T03:01:43.839Z,100201.88
2023-03-30T03:04:11.804Z,100192.25
2023-03-30T03:06:39.764Z,100194.16
2023-03-30T03:09:07.680Z,100185.69
2023-03-30T03:11:35.601Z,100189.69
2023-03-30T03:14:03.547Z,100182.84
2023-03-30T03:16:31.749Z,100190.25
2023-03-30T03:19:01.510Z,100186.72
2023-03-30T03:21:29.441Z,100191.84
2023-03-30T03:23:57.357Z,100188.31
2023-03-30T03:26:25.291Z,100190.69
2023-03-30T03:28:53.369Z,100183.75
2023-03-30T03:31:22.018Z,100186.41
2023-03-30T03:33:52.898Z,100187.34
2023-03-30T03:36:23.642Z,100196.53
2023-03-30T03:38:52.222Z,100180.91
2023-03-30T03:41:20.079Z,100190.38
2023-03-30T03:43:47.955Z,100178.16
2023-03-30T03:46:15.973Z,100189.06
2023-03-30T03:48:43.881Z,100183.31
2023-03-30T03:51:11.798Z,100180.19
2023-03-30T03:53:41.103Z,100194.84
2023-03-30T03:56:09.531Z,100187.13
2023-03-30T03:58:37.401Z,100182.09
2023-03-30T04:01:05.584Z,100184.09
2023-03-30T04:03:33.719Z,100177.34
2023-03-30T04:06:02.487Z,100182.59
2023-03-30T04:08:30.495Z,100178.38
2023-03-30T04:11:06.255Z,100189.06
2023-03-30T04:13:39.557Z,100045.88
2023-03-30T04:16:07.876Z,100191.66
2023-03-30T04:18:35.872Z,100190.69
2023-03-30T04:21:05.271Z,100197.06
2023-03-30T04:23:33.831Z,100196.03
2023-03-30T04:26:03.100Z,100193.06
2023-03-30T04:28:31.895Z,100191.91
2023-03-30T04:31:00.125Z,100194.56
2023-03-30T04:33:28.554Z,100201.63
2023-03-30T04:35:56.530Z,100173.63
2023-03-30T04:38:24.401Z,100158.22
2023-03-30T04:40:53.016Z,100205.25
2023-03-30T04:43:22.899Z,100204.31
2023-03-30T04:45:51.964Z,100209.53
2023-03-30T04:48:19.970Z,100209.25
2023-03-30T04:50:49.318Z,100179.34
2023-03-30T04:53:17.487Z,100206.56
2023-03-30T04:55:49.210Z,100197.53
2023-03-30T04:58:17.175Z,100194.09
2023-03-30T05:00:46.676Z,100208.69
2023-03-30T05:03:14.907Z,100214.78
2023-03-30T05:05:43.116Z,100207.47
2023-03-30T05:08:11.034Z,100211.63
2023-03-30T05:10:38.978Z,100225.63
2023-03-30T05:13:06.939Z,100220.22
2023-03-30T05:15:34.866Z,100220.69
2023-03-30T05:18:04.225Z,100220.88
2023-03-30T05:20:32.250Z,100220.25
2023-03-30T05:23:00.405Z,100218.59
2023-03-30T05:25:28.292Z,100227.31
2023-03-30T05:27:56.179Z,100235.97
2023-03-30T05:30:24.087Z,100238.44
2023-03-30T05:32:52.204Z,100230.44
2023-03-30T05:35:21.564Z,100241.59
2023-03-30T05:37:50.070Z,100230.78
2023-03-30T05:40:18.290Z,100237.94
2023-03-30T05:42:46.329Z,100248.84
2023-03-30T05:45:14.202Z,100239.28
2023-03-30T05:47:42.158Z,100244.84
2023-03-30T05:50:11.514Z,100239.09
2023-03-30T05:52:41.278Z,100253.41
2023-03-30T05:55:09.871Z,100266.06
2023-03-30T05:57:38.482Z,100261.13
2023-03-30T06:00:09.803Z,100270.41
2023-03-30T06:02:37.785Z,100271.22
2023-03-30T06:05:11.067Z,100271.50
2023-03-30T06:07:43.540Z,100286.13
2023-03-30T06:10:22.330Z,100279.72
2023-03-30T06:12:50.259Z,100293.63
2023-03-30T06:15:18.178Z,100294.31
2023-03-30T06:17:46.823Z,100279.13
2023-03-30T06:20:14.849Z,100287.66
2023-03-30T06:22:44.732Z,100300.63
2023-03-30T06:25:13.722Z,100290.72
2023-03-30T06:27:44.545Z,100297.28
2023-03-30T06:30:13.679Z,100295.38
2023-03-30T06:32:41.879Z,100306.03
2023-03-30T06:35:10.383Z,100308.41
2023-03-30T06:37:38.302Z,100317.00
2023-03-30T06:40:13.238Z,100309.75
2023-03-30T06:42:45.460Z,100312.50
2023-03-30T06:45:13.468Z,100312.88
2023-03-30T06:47:44.959Z,100311.91
2023-03-30T06:50:13.510Z,100324.91
2023-03-30T06:52:41.641Z,100330.03
2023-03-30T06:55:11.044Z,100334.31
2023-03-30T06:57:38.975Z,100324.50
2023-03-30T07:00:13.280Z,100330.31
2023-03-30T07:02:41.380Z,100336.28
2023-03-30T07:05:12.088Z,100327.53
2023-03-30T07:07:40.907Z,100341.16
2023-03-30T07:10:11.311Z,100346.38
2023-03-30T07:12:39.233Z,100350.91
2023-03-30T07:15:08.867Z,100356.91
2023-03-30T07:17:39.402Z,100357.00
2023-03-30T07:20:09.110Z,100357.75
2023-03-30T07:22:37.668Z,100350.69
2023-03-30T07:25:06.366Z,100347.94
2023-03-30T07:27:39.620Z,100344.09
2023-03-30T07:30:21.430Z,100348.47
2023-03-30T07:32:50.636Z,100346.47
2023-03-30T07:35:19.112Z,100360.38
2023-03-30T07:37:50.850Z,100338.16
2023-03-30T07:40:20.379Z,100357.09
2023-03-30T07:42:50.941Z,100355.78
2023-03-30T07:45:19.063Z,100357.56
2023-03-30T07:47:49.421Z,100366.06
2023-03-30T07:50:17.931Z,100365.22
2023-03-30T07:52:46.122Z,100363.06
2023-03-30T07:55:14.449Z,100366.13
2023-03-30T07:57:42.695Z,100364.53
2023-03-30T08:00:14.866Z,100360.97
2023-03-30T08:02:44.947Z,100370.31
2023-03-30T08:05:13.605Z,100389.78
2023-03-30T08:07:42.002Z,100374.50
2023-03-30T08:10:10.738Z,100400.19
2023-03-30T08:12:38.755Z,100379.84
2023-03-30T08:15:08.096Z,100383.06
2023-03-30T08:17:38.686Z,100394.00
2023-03-30T08:20:10.904Z,100410.16
2023-03-30T08:22:38.911Z,100399.88
2023-03-30T08:25:08.139Z,100394.25
2023-03-30T08:27:36.747Z,100406.28
2023-03-30T08:30:05.530Z,100394.94
2023-03-30T08:32:35.568Z,100406.09
2023-03-30T08:35:05.358Z,100414.75
2023-03-30T08:37:34.041Z,100416.25
2023-03-30T08:40:02.119Z,100409.84
2023-03-30T08:42:39.788Z,100427.09
2023-03-30T08:45:11.516Z,100428.41
2023-03-30T08:47:47.111Z,100393.03
2023-03-30T08:50:32.940Z,100411.63
2023-03-30T08:53:04.928Z,100421.28
2023-03-30T08:55:38.869Z,100375.84
2023-03-30T08:58:09.252Z,100400.63
2023-03-30T09:00:39.882Z,100417.91
2023-03-30T09:03:15.978Z,100407.81
2023-03-30T09:05:47.486Z,100426.03
2023-03-30T09:08:17.571Z,100422.16
2023-03-30T09:10:47.019Z,100424.72
2023-03-30T09:13:16.938Z,100417.13
2023-03-30T09:15:54.462Z,100431.41
2023-03-30T09:18:23.872Z,100378.63
2023-03-30T09:20:54.740Z,100431.38
2023-03-30T09:23:25.627Z,100444.47
2023-03-30T09:26:00.791Z,100421.41
2023-03-30T09:28:34.858Z,100444.56
2023-03-30T09:31:08.797Z,100418.66
2023-03-30T09:33:43.278Z,100453.47
2023-03-30T09:36:16.385Z,100453.56
2023-03-30T09:38:44.538Z,100434.91
2023-03-30T09:41:24.964Z,100457.97
2023-03-30T09:43:53.001Z,100459.25
2023-03-30T09:46:21.062Z,100464.19
2023-03-30T09:48:50.086Z,100466.53
2023-03-30T09:51:21.888Z,100482.31
2023-03-30T09:53:50.767Z,100462.56
2023-03-30T09:56:22.081Z,100481.13
2023-03-30T09:58:50.141Z,100457.38
2023-03-30T10:01:20.169Z,100464.88
2023-03-30T10:04:07.862Z,100467.91
2023-03-30T10:06:39.714Z,100467.66
2023-03-30T10:09:09.738Z,100449.97
2023-03-30T10:11:39.196Z,100474.69
2023-03-30T10:14:09.722Z,100486.09
2023-03-30T10:16:37.984Z,100480.47
2023-03-30T10:19:06.756Z,100482.19
2023-03-30T10:21:40.143Z,100479.81
2023-03-30T10:24:18.689Z,100482.53
2023-03-30T10:26:47.453Z,100470.38
2023-03-30T10:29:18.428Z,100480.91
2023-03-30T10:31:48.544Z,100486.88
2023-03-30T10:34:18.915Z,100473.75
2023-03-30T10:36:53.272Z,100478.28
2023-03-30T10:39:24.246Z,100481.63
2023-03-30T10:41:52.148Z,100482.19
2023-03-30T10:44:23.856Z,100478.94
2023-03-30T10:46:55.526Z,100476.25
2023-03-30T10:49:29.359Z,100484.41
2023-03-30T10:52:05.446Z,100482.19
2023-03-30T10:54:35.135Z,100477.81
2023-03-30T10:57:19.157Z,100482.38
2023-03-30T11:00:01.451Z,100480.19
2023-03-30T11:02:37.346Z,100483.16
2023-03-30T11:05:07.539Z,100489.94
2023-03-30T11:07:38.331Z,100492.59
2023-03-30T11:10:07.708Z,100480.25
2023-03-30T11:12:37.562Z,100468.47
2023-03-30T11:15:07.994Z,100477.78
2023-03-30T11:17:37.691Z,100470.44
2023-03-30T11:20:16.334Z,100488.91
2023-03-30T11:22:47.010Z,100477.94
2023-03-30T11:25:21.390Z,100480.88
2023-03-30T11:27:56.066Z,100476.91
2023-03-30T11:30:28.031Z,100482.94
2023-03-30T11:32:58.438Z,100467.94
2023-03-30T11:35:33.233Z,100467.75
2023-03-30T11:38:06.834Z,100475.06
2023-03-30T11:40:39.581Z,100464.09
2023-03-30T11:43:09.784Z,100471.38
2023-03-30T11:45:43.930Z,100440.78
2023-03-30T11:48:36.087Z,100487.19
2023-03-30T11:51:14.365Z,100474.88
2023-03-30T11:53:48.794Z,100462.13
2023-03-30T11:56:23.049Z,100472.25
2023-03-30T11:58:59.153Z,100471.31
2023-03-30T12:01:35.818Z,100466.78
2023-03-30T12:04:07.362Z,100464.38
2023-03-30T12:06:47.526Z,100469.66
2023-03-30T12:09:35.105Z,100456.69
2023-03-30T12:12:12.013Z,100463.34
2023-03-30T12:14:51.254Z,100457.88
2023-03-30T12:17:26.908Z,100470.91
2023-03-30T12:19:57.269Z,100459.50
2023-03-30T12:22:28.461Z,100454.25
2023-03-30T12:25:00.518Z,100457.09
2023-03-30T12:27:31.341Z,100454.00
2023-03-30T12:30:12.767Z,100450.91
2023-03-30T12:32:57.798Z,100448.28
2023-03-30T12:36:02.503Z,100438.81
2023-03-30T12:38:38.602Z,100443.22
2023-03-30T12:41:17.391Z,100416.59
2023-03-30T12:44:20.876Z,100386.25
2023-03-30T12:46:59.662Z,100454.41
2023-03-30T12:49:33.825Z,100265.00
2023-03-30T12:52:09.715Z,100448.25
2023-03-30T12:54:58.757Z,100441.28
2023-03-30T12:57:37.989Z,100443.09
2023-03-30T13:00:48.172Z,100446.78
2023-03-30T13:03:28.773Z,100413.81
2023-03-30T13:05:57.417Z,100388.69
2023-03-30T13:08:28.660Z,100311.84
2023-03-30T13:11:10.337Z,100371.22
2023-03-30T13:14:00.417Z,100238.59
2023-03-30T13:17:16.281Z,100369.34
2023-03-30T13:19:52.032Z,100422.97
2023-03-30T13:22:33.004Z,100377.91
2023-03-30T13:25:26.523Z,100319.41
2023-03-30T13:27:58.708Z,100376.31
2023-03-30T13:30:32.659Z,100379.88
2023-03-30T13:33:10.489Z,100385.88
2023-03-30T13:35:57.723Z,100380.88
2023-03-30T13:38:36.377Z,100374.88
2023-03-30T13:41:12.372Z,100380.03
2023-03-30T13:44:02.405Z,100338.84
2023-03-30T13:46:34.021Z,100372.66
2023-03-30T13:49:12.716Z,100367.78
2023-03-30T13:51:42.581Z,100359.25
2023-03-30T13:54:17.785Z,100339.94
2023-03-30T13:56:47.622Z,100334.53
2023-03-30T13:59:17.022Z,100331.34
2023-03-30T14:01:48.265Z,100309.63
2023-03-30T14:04:16.645Z,100324.50
2023-03-30T14:06:47.064Z,100290.50
2023-03-30T14:09:16.255Z,100318.66
2023-03-30T14:11:46.124Z,100287.09
2023-03-30T14:14:19.143Z,100297.75
2023-03-30T14:16:48.634Z,100312.94
2023-03-30T14:19:21.948Z,100313.63
2023-03-30T14:21:50.044Z,100307.69
2023-03-30T14:24:19.226Z,100288.22
2023-03-30T14:26:47.908Z,100303.78
2023-03-30T14:29:30.419Z,100280.50
2023-03-30T14:34:38.161Z,100274.34
2023-03-30T14:37:07.594Z,100288.09
2023-03-30T14:39:40.024Z,100286.38
2023-03-30T14:42:16.662Z,100269.63
2023-03-30T14:44:44.694Z,100262.53
2023-03-30T14:47:19.722Z,100249.31
2023-03-30T14:49:48.053Z,100256.81
2023-03-30T14:52:17.982Z,100264.13
2023-03-30T14:55:04.854Z,100252.06
2023-03-30T14:57:37.997Z,100250.25
2023-03-30T15:00:21.348Z,100195.09
2023-03-30T15:02:52.819Z,100240.78
2023-03-30T15:05:21.128Z,100246.19
2023-03-30T15:07:49.811Z,100237.00
2023-03-30T15:10:26.787Z,100233.63
2023-03-30T15:12:56.323Z,100221.41
2023-03-30T15:15:26.774Z,100225.53
2023-03-30T15:17:56.197Z,100215.84
2023-03-30T15:20:28.182Z,100219.72
2023-03-30T15:22:56.776Z,100212.09
2023-03-30T15:25:29.349Z,100195.19
2023-03-30T15:27:59.173Z,100167.59
2023-03-30T15:30:29.643Z,100200.06
2023-03-30T15:32:59.172Z,100194.22
2023-03-30T15:35:28.456Z,100192.75
2023-03-30T15:37:57.226Z,100191.31
2023-03-30T15:40:33.118Z,100194.56
2023-03-30T15:43:17.292Z,100182.50
2023-03-30T15:45:52.407Z,100174.38
2023-03-30T15:48:23.521Z,100174.00
2023-03-30T15:50:55.386Z,100168.59
2023-03-30T15:53:32.402Z,100161.81
2023-03-30T15:56:00.510Z,100156.69
2023-03-30T15:58:29.321Z,100151.66
2023-03-30T16:00:57.526Z,100146.31
2023-03-30T16:03:39.389Z,100145.75
2023-03-30T16:06:07.994Z,100138.06
2023-03-30T16:08:35.940Z,100139.69
2023-03-30T16:11:04.667Z,100121.78
2023-03-30T16:13:32.771Z,100119.28
2023-03-30T16:16:03.765Z,100114.78
2023-03-30T16:18:31.625Z,100119.63
2023-03-30T16:21:01.046Z,100114.00
2023-03-30T16:23:28.970Z,100118.91
2023-03-30T16:25:58.273Z,100113.72
2023-03-30T16:28:26.295Z,100098.72
2023-03-30T16:30:54.761Z,100092.16
2023-03-30T16:33:23.388Z,100085.34
2023-03-30T16:35:51.302Z,100081.69
2023-03-30T16:38:20.853Z,100088.53
2023-03-30T16:40:49.827Z,100067.94
2023-03-30T16:43:17.783Z,100074.31
2023-03-30T16:45:45.739Z,100066.72
2023-03-30T16:48:15.225Z,100072.47
2023-03-30T16:50:44.189Z,100057.09
2023-03-30T16:53:12.487Z,100025.41
2023-03-30T16:55:44.109Z,100031.47
2023-03-30T16:58:14.457Z,100034.19
2023-03-30T17:00:43.545Z,100026.88
2023-03-30T17:03:11.739Z,100015.03
2023-03-30T17:05:40.132Z,100015.31
2023-03-30T17:08:09.080Z,100010.03
2023-03-30T17:10:38.479Z,99996.41
2023-03-30T17:13:09.343Z,99969.34
2023-03-30T17:15:39.035Z,99963.47
2023-03-30T17:18:09.213Z,99952.13
2023-03-30T17:20:37.863Z,99949.09
2023-03-30T17:23:05.938Z,99945.81
2023-03-30T17:25:36.185Z,99924.56
2023-03-30T17:28:08.468Z,99911.44
2023-03-30T17:30:40.223Z,99912.75
2023-03-30T17:33:10.620Z,99902.66
2023-03-30T17:35:39.302Z,99892.28
2023-03-30T17:38:08.878Z,99883.97
2023-03-30T17:40:38.791Z,99868.25
2023-03-30T17:43:07.179Z,99841.38
2023-03-30T17:45:35.707Z,99843.91
2023-03-30T17:48:05.527Z,99842.31
2023-03-30T17:50:36.305Z,99845.25
2023-03-30T17:53:04.234Z,99832.09
2023-03-30T17:55:33.001Z,99812.84
2023-03-30T17:58:00.927Z,99804.94
2023-03-30T18:00:33.241Z,99792.88
2023-03-30T18:03:03.924Z,99785.84
2023-03-30T18:05:34.815Z,99765.03
2023-03-30T18:08:02.720Z,99766.84
2023-03-30T18:10:35.874Z,99761.00
2023-03-30T18:13:03.728Z,99756.22
2023-03-30T18:15:31.697Z,99746.03
2023-03-30T18:18:00.224Z,99733.34
2023-03-30T18:20:29.464Z,99735.91
2023-03-30T18:22:58.686Z,99720.94
2023-03-30T18:25:32.481Z,99740.50
2023-03-30T18:28:00.716Z,99716.91
2023-03-30T18:30:30.274Z,99717.00
2023-03-30T18:32:58.234Z,99701.91
2023-03-30T18:35:26.759Z,99706.63
2023-03-30T18:37:54.932Z,99685.47
2023-03-30T18:40:26.115Z,99660.13
2023-03-30T18:42:54.206Z,99654.78
2023-03-30T18:45:23.226Z,99638.06
2023-03-30T18:47:51.196Z,99613.34
2023-03-30T18:50:21.703Z,99630.31
2023-03-30T18:52:49.617Z,99616.31
2023-03-30T18:55:17.855Z,99597.84
2023-03-30T18:57:47.105Z,99595.41
2023-03-30T19:00:19.514Z,99573.88
2023-03-30T19:02:47.696Z,99580.22
2023-03-30T19:05:16.516Z,99555.50
2023-03-30T19:07:44.517Z,99552.63
2023-03-30T19:10:13.468Z,99537.66
2023-03-30T19:12:41.574Z,99526.59
2023-03-30T19:15:14.957Z,99538.28
2023-03-30T19:17:42.925Z,99513.38
2023-03-30T19:20:12.196Z,99506.78
2023-03-30T19:22:40.047Z,99509.25
2023-03-30T19:25:08.918Z,99495.25
2023-03-30T19:27:36.824Z,99469.16
2023-03-30T19:30:05.319Z,99483.31
2023-03-30T19:32:34.740Z,99479.06
2023-03-30T19:35:02.711Z,99478.34
2023-03-30T19:37:30.535Z,99477.38
2023-03-30T19:39:58.461Z,99468.50
2023-03-30T19:42:28.796Z,99434.53
2023-03-30T19:44:56.644Z,99431.97
2023-03-30T19:47:24.869Z,99429.31
2023-03-30T19:49:54.205Z,99423.84
2023-03-30T19:52:22.117Z,99412.19
2023-03-30T19:54:50.239Z,99408.44
2023-03-30T19:57:18.247Z,99382.69
2023-03-30T19:59:46.945Z,99386.94
2023-03-30T20:02:15.686Z,99366.88
2023-03-30T20:04:44.570Z,99354.16
2023-03-30T20:07:14.043Z,99366.31
2023-03-30T20:09:41.962Z,99358.66
2023-03-30T20:12:09.967Z,99334.13
2023-03-30T20:14:38.039Z,99348.31
2023-03-30T20:17:10.213Z,99330.25
2023-03-30T20:19:40.804Z,99320.66
2023-03-30T20:22:09.592Z,99295.88
2023-03-30T20:24:39.248Z,99295.59
2023-03-30T20:27:07.452Z,99284.91
2023-03-30T20:29:36.029Z,99271.66
2023-03-30T20:32:04.070Z,99259.88
2023-03-30T20:34:32.063Z,99241.91
2023-03-30T20:36:59.929Z,99244.09
2023-03-30T20:39:28.042Z,99233.16
2023-03-30T20:41:59.029Z,99216.22
2023-03-30T20:44:31.200Z,99196.44
2023-03-30T20:46:59.311Z,99188.41
2023-03-30T20:49:28.672Z,99175.53
2023-03-30T20:52:00.810Z,99169.31
2023-03-30T20:54:36.485Z,99144.47
2023-03-30T20:57:05.856Z,99147.13
2023-03-30T20:59:33.783Z,99143.13
2023-03-30T21:02:03.482Z,99134.63
2023-03-30T21:04:33.644Z,99120.16
2023-03-30T21:07:01.601Z,99119.56
2023-03-30T21:09:29.481Z,99113.00
2023-03-30T21:11:57.398Z,99100.75
2023-03-30T21:14:26.666Z,99080.06
2023-03-30T21:16:54.725Z,99079.69
2023-03-30T21:19:22.727Z,99076.63
2023-03-30T21:21:50.594Z,99066.50
2023-03-30T21:24:21.033Z,99056.25
2023-03-30T21:26:48.928Z,99049.94
2023-03-30T21:29:16.929Z,99028.53
2023-03-30T21:31:46.182Z,99030.09
2023-03-30T21:34:14.646Z,99011.53
2023-03-30T21:36:42.700Z,99001.38
2023-03-30T21:39:10.684Z,98985.59
2023-03-30T21:41:38.747Z,98981.69
2023-03-30T21:44:06.797Z,98955.22
2023-03-30T21:46:34.755Z,98937.19
2023-03-30T21:49:04.339Z,98933.78
2023-03-30T21:51:32.374Z,98920.84
2023-03-30T21:54:00.318Z,98917.47
2023-03-30T21:56:29.101Z,98901.97
2023-03-30T21:58:57.200Z,98906.88
2023-03-30T22:01:25.162Z,98882.81
2023-03-30T22:03:53.343Z,98873.41
2023-03-30T22:06:22.965Z,98872.69
2023-03-30T22:08:50.872Z,98853.03
2023-03-30T22:11:20.016Z,98838.50
2023-03-30T22:13:48.958Z,98823.84
2023-03-30T22:16:18.662Z,98817.81
2023-03-30T22:18:47.192Z,98834.41
2023-03-30T22:21:17.045Z,98809.94
2023-03-30T22:23:46.377Z,98798.94
2023-03-30T22:26:14.431Z,98791.38
2023-03-30T22:28:42.350Z,98782.66
2023-03-30T22:31:10.355Z,98772.50
2023-03-30T22:33:41.602Z,98764.78
2023-03-30T22:36:17.191Z,98757.03
2023-03-30T22:38:46.691Z,98745.63
2023-03-30T22:41:14.634Z,98747.72
2023-03-30T22:43:42.569Z,98693.00
2023-03-30T22:46:10.872Z,98716.66
2023-03-30T22:48:41.577Z,98705.28
2023-03-30T22:51:09.687Z,98701.34
2023-03-30T22:53:38.589Z,98696.56
2023-03-30T22:56:08.732Z,98695.59
2023-03-30T22:58:36.766Z,98681.00
2023-03-30T23:01:06.040Z,98686.63
2023-03-30T23:03:34.158Z,98662.06
2023-03-30T23:06:02.070Z,98652.88
2023-03-30T23:08:30.672Z,98648.41
2023-03-30T23:11:04.009Z,98638.28
2023-03-30T23:13:33.490Z,98634.47
2023-03-30T23:16:01.563Z,98623.66
2023-03-30T23:18:29.515Z,98621.84
2023-03-30T23:20:58.072Z,98610.88
2023-03-30T23:23:27.028Z,98604.66
2023-03-30T23:25:54.884Z,98601.03
2023-03-30T23:28:22.725Z,98584.84
2023-03-30T23:30:51.984Z,98596.22
2023-03-30T23:33:19.911Z,98579.22
2023-03-30T23:35:49.982Z,98559.13
2023-03-30T23:38:18.164Z,98556.03
2023-03-30T23:40:46.467Z,98555.59
2023-03-30T23:43:14.348Z,98547.72
2023-03-30T23:45:43.500Z,98535.47
2023-03-30T23:48:12.717Z,98521.16
2023-03-30T23:50:41.237Z,98518.75
2023-03-30T23:53:09.429Z,98510.03
2023-03-30T23:55:37.668Z,98493.47
2023-03-30T23:58:05.582Z,98498.81
